Time;durP1;ratioP1;P1;durP2;ratioP2;P2;SDS_P1;SDS_P2;PMS_P1;PMS_P2;Temp;Humidity;BMP_temperature;BMP_pressure;BME280_temperature;BME280_humidity;BME280_pressure;Samples;Min_cycle;Max_cycle;Signal;HPM_P1;HPM_P2
2022/03/31 00:00:34;;;;;;;21.10;10.20;;;9.40;81.90;;;6.78;79.01;99050.91;4975674;28;20049;-82
2022/03/31 00:03:04;;;;;;;19.77;9.75;;;9.30;82.00;;;6.82;78.51;99056.75;4990490;28;20046;-82
2022/03/31 00:05:33;;;;;;;21.10;9.98;;;9.30;81.90;;;6.83;78.34;99055.72;4979182;28;20070;-82
2022/03/31 00:08:03;;;;;;;18.92;9.45;;;9.30;82.10;;;6.76;79.41;99052.97;4970942;28;20130;-82
2022/03/31 00:10:35;;;;;;;19.05;9.55;;;9.30;82.20;;;6.74;79.14;99054.19;4980044;28;20050;-82
2022/03/31 00:13:05;;;;;;;20.13;10.30;;;9.30;82.40;;;6.75;78.98;99050.47;4989729;28;20078;-82
2022/03/31 00:15:34;;;;;;;20.55;10.57;;;9.20;82.30;;;6.75;80.03;99039.66;4979900;28;20069;-82
2022/03/31 00:18:03;;;;;;;23.95;11.10;;;9.30;82.70;;;6.69;79.52;99037.75;4969184;28;20411;-82
2022/03/31 00:20:31;;;;;;;17.85;9.65;;;9.30;82.60;;;6.70;79.72;99042.97;4970029;28;20131;-82
2022/03/31 00:22:58;;;;;;;21.80;9.88;;;9.30;82.50;;;6.70;79.35;99034.00;4971029;28;20054;-82
2022/03/31 00:25:26;;;;;;;19.40;9.45;;;9.30;82.40;;;6.69;79.47;99037.75;4992721;28;20065;-82
2022/03/31 00:27:56;;;;;;;19.88;9.07;;;9.30;82.10;;;6.64;79.73;99031.06;4993497;28;20053;-82
2022/03/31 00:30:24;;;;;;;17.35;9.63;;;9.30;82.40;;;6.70;79.87;99036.69;4974457;28;20142;-82
2022/03/31 00:32:52;;;;;;;21.65;9.93;;;9.30;82.40;;;6.68;79.58;99028.78;4974131;28;20127;-82
2022/03/31 00:35:20;;;;;;;17.55;9.10;;;9.30;82.40;;;6.67;80.17;99031.69;4990742;28;20410;-82
2022/03/31 00:37:48;;;;;;;17.48;9.38;;;9.30;82.60;;;6.67;79.91;99031.69;4993838;28;20125;-82
2022/03/31 00:40:18;;;;;;;17.60;9.10;;;9.30;82.60;;;6.73;79.56;99030.91;4977826;28;20074;-82
2022/03/31 00:42:49;;;;;;;15.65;9.70;;;9.30;82.40;;;6.69;79.49;99027.75;4972689;28;20043;-82
2022/03/31 00:45:21;;;;;;;17.27;9.60;;;9.30;82.40;;;6.69;79.52;99029.63;4988429;28;20054;-82
2022/03/31 00:47:49;;;;;;;23.42;10.30;;;9.30;82.40;;;6.72;79.18;99026.50;4993731;28;20050;-82
2022/03/31 00:50:17;;;;;;;17.33;9.35;;;9.30;82.50;;;6.70;80.27;99026.72;4978999;28;20046;-82
2022/03/31 00:52:45;;;;;;;18.05;9.02;;;9.30;82.80;;;6.72;79.76;99018.41;4979672;28;20551;-82
2022/03/31 00:55:16;;;;;;;20.95;10.13;;;9.20;82.60;;;6.67;80.18;99013.59;4993467;28;20053;-82
2022/03/31 00:57:44;;;;;;;21.55;10.32;;;9.20;82.60;;;6.66;79.79;99022.72;4984866;28;20031;-82
2022/03/31 01:00:15;;;;;;;17.95;9.90;;;9.20;82.60;;;6.63;79.98;99025.84;4973114;28;20114;-82
2022/03/31 01:02:45;;;;;;;21.60;10.40;;;9.20;82.70;;;6.60;80.23;99005.41;4983553;28;20054;-82
2022/03/31 01:05:14;;;;;;;19.75;9.98;;;9.20;82.60;;;6.62;79.79;99011.47;4993398;28;20050;-82
2022/03/31 01:07:42;;;;;;;20.50;10.05;;;9.20;82.80;;;6.60;80.11;99005.41;4982845;28;20039;-82
2022/03/31 01:10:12;;;;;;;18.35;9.68;;;9.20;82.70;;;6.55;80.80;99007.91;4973070;28;20161;-82
2022/03/31 01:12:40;;;;;;;19.05;10.05;;;9.10;82.90;;;6.55;79.94;99007.03;4986301;28;20046;-82
2022/03/31 01:15:10;;;;;;;20.30;9.90;;;9.10;82.70;;;6.59;80.39;99003.78;4993232;28;20134;-82
2022/03/31 01:17:40;;;;;;;22.33;10.50;;;9.10;82.90;;;6.53;80.39;99001.00;4975672;28;20146;-82
2022/03/31 01:20:12;;;;;;;20.50;9.70;;;9.10;83.00;;;6.51;80.93;99006.63;4972771;28;20388;-82
2022/03/31 01:22:39;;;;;;;20.42;10.07;;;9.10;83.10;;;6.51;81.07;98997.66;4990956;28;20148;-82
2022/03/31 01:25:10;;;;;;;17.10;9.88;;;9.10;83.30;;;6.51;80.77;98990.41;4992288;28;20736;-82
2022/03/31 01:27:41;;;;;;;18.42;10.25;;;9.10;83.50;;;6.45;81.49;98993.88;4992502;28;20050;-82
2022/03/31 01:30:11;;;;;;;22.35;10.23;;;9.10;83.60;;;6.44;81.92;98997.63;4989381;28;20077;-82
2022/03/31 01:32:39;;;;;;;17.92;10.15;;;9.10;83.70;;;6.45;81.29;98986.63;4979248;28;20055;-82
2022/03/31 01:35:07;;;;;;;21.70;10.63;;;9.10;83.70;;;6.45;81.28;98994.72;4973119;28;20046;-82
2022/03/31 01:37:35;;;;;;;21.27;10.20;;;9.10;83.70;;;6.47;81.78;98983.69;4984273;28;20121;-82
2022/03/31 01:40:02;;;;;;;18.80;10.68;;;9.10;83.90;;;6.40;82.37;98980.13;4991855;28;20054;-82
2022/03/31 01:42:31;;;;;;;21.83;11.02;;;9.00;84.10;;;6.33;82.79;98982.75;4972842;28;20047;-82
2022/03/31 01:44:59;;;;;;;21.55;11.35;;;9.00;84.30;;;6.36;83.18;98978.81;4972895;28;20075;-82
2022/03/31 01:47:26;;;;;;;25.15;11.38;;;9.00;84.30;;;6.43;83.08;98982.41;4990475;28;20513;-82
2022/03/31 01:49:54;;;;;;;18.08;10.80;;;9.00;84.30;;;6.40;82.71;98978.25;4991285;28;20706;-82
2022/03/31 01:52:22;;;;;;;20.15;11.35;;;9.00;84.30;;;6.40;83.55;98966.63;4990850;28;20124;-82
2022/03/31 01:54:49;;;;;;;21.90;11.57;;;9.00;84.40;;;6.36;83.47;98976.13;4990880;28;20042;-82
2022/03/31 01:57:16;;;;;;;19.20;10.85;;;9.00;84.70;;;6.37;83.55;98967.00;4991669;28;20072;-82
2022/03/31 01:59:45;;;;;;;21.00;11.32;;;9.00;84.70;;;6.34;83.99;98973.63;4984090;28;20046;-82
2022/03/31 02:02:14;;;;;;;21.52;11.48;;;9.00;84.90;;;6.38;84.23;98964.09;4973462;28;20504;-82
2022/03/31 02:04:43;;;;;;;22.88;12.20;;;9.00;85.10;;;6.36;84.30;98968.03;4979261;28;20403;-82
2022/03/31 02:07:11;;;;;;;19.98;10.57;;;9.00;85.20;;;6.33;85.16;98954.91;4991978;28;20392;-82
2022/03/31 02:09:39;;;;;;;22.38;10.85;;;9.20;85.80;;;6.23;86.46;98956.09;4986063;28;20054;-82
2022/03/31 02:12:08;;;;;;;21.98;12.05;;;9.00;86.00;;;6.30;85.62;98949.91;4970558;28;20090;-82
2022/03/31 02:14:37;;;;;;;21.92;12.35;;;9.00;86.00;;;6.32;85.60;98953.22;4976962;28;20125;-82
2022/03/31 02:17:06;;;;;;;21.55;11.82;;;9.00;86.00;;;6.27;86.23;98943.03;4992075;28;20380;-82
2022/03/31 02:19:34;;;;;;;21.67;11.88;;;9.00;86.00;;;6.28;86.38;98943.84;4974862;28;20106;-82
2022/03/31 02:22:01;;;;;;;21.33;11.18;;;8.90;86.30;;;6.25;87.11;98932.41;4971993;28;20057;-82
2022/03/31 02:24:30;;;;;;;20.30;10.85;;;8.90;86.60;;;6.21;87.27;98930.31;4985285;28;20051;-82
2022/03/31 02:26:57;;;;;;;24.63;12.02;;;8.90;86.60;;;6.19;87.59;98935.91;4972251;28;20043;-82
2022/03/31 02:29:26;;;;;;;20.45;11.65;;;8.90;87.00;;;6.16;88.83;98930.88;4986192;28;20121;-82
2022/03/31 02:31:53;;;;;;;17.63;11.15;;;8.90;87.20;;;6.16;88.87;98928.19;4991101;28;20042;-82
2022/03/31 02:34:22;;;;;;;22.40;12.23;;;8.90;87.60;;;6.16;88.98;98928.19;4977920;28;20054;-82
2022/03/31 02:36:49;;;;;;;19.42;11.43;;;8.90;87.70;;;6.20;88.37;98924.06;4972161;28;20118;-82
2022/03/31 02:39:16;;;;;;;23.42;11.93;;;8.90;87.90;;;6.22;88.44;98921.97;4972034;28;20046;-82
2022/03/31 02:41:44;;;;;;;27.95;12.15;;;8.90;87.80;;;6.10;89.82;98920.03;4970985;28;20105;-82
2022/03/31 02:44:11;;;;;;;22.08;11.07;;;8.90;88.10;;;5.99;90.08;98916.00;4987872;28;20503;-82
2022/03/31 02:46:39;;;;;;;24.60;12.57;;;8.90;88.30;;;5.95;90.67;98915.53;4990893;28;20792;-82
2022/03/31 02:49:06;;;;;;;26.17;13.02;;;8.90;88.00;;;5.87;90.98;98913.78;4989687;28;20046;-82
2022/03/31 02:51:34;;;;;;;19.23;11.75;;;8.80;88.30;;;5.93;90.45;98916.75;4987316;28;20492;-82
2022/03/31 02:56:46;;;;;;;23.98;12.82;;;8.80;88.00;;;6.00;89.69;98906.88;4971554;28;20055;-82
2022/03/31 02:59:13;;;;;;;22.25;12.20;;;8.80;88.00;;;6.01;89.70;98903.13;4986420;28;20046;-82
2022/03/31 03:01:43;;;;;;;21.58;11.65;;;8.80;88.20;;;6.08;89.32;98904.03;4990537;28;20056;-82
2022/03/31 03:04:10;;;;;;;21.58;12.32;;;8.80;88.20;;;6.07;89.29;98896.94;4976624;28;20129;-82
2022/03/31 03:06:40;;;;;;;20.02;12.18;;;8.80;88.10;;;6.07;89.32;98894.22;4972397;28;20043;-82
2022/03/31 03:09:08;;;;;;;22.30;12.68;;;8.80;88.10;;;6.09;90.17;98894.88;4990298;28;20129;-82
2022/03/31 03:11:35;;;;;;;20.60;12.52;;;8.80;88.30;;;6.02;90.00;98894.00;4990644;28;20046;-82
2022/03/31 03:14:03;;;;;;;25.10;13.48;;;8.80;88.30;;;6.07;89.85;98892.38;4990082;28;20085;-82
2022/03/31 03:16:31;;;;;;;23.08;12.93;;;8.80;88.20;;;6.02;90.11;98880.50;4991307;28;20050;-82
2022/03/31 03:18:58;;;;;;;24.13;12.60;;;8.80;88.40;;;6.01;90.59;98876.94;4990572;28;20485;-82
2022/03/31 03:21:26;;;;;;;21.00;12.75;;;8.80;88.80;;;6.02;90.91;98883.22;4989611;28;20042;-82
2022/03/31 03:23:55;;;;;;;24.92;12.98;;;8.80;89.00;;;6.02;90.88;98875.09;4991369;28;20443;-82
2022/03/31 03:26:22;;;;;;;25.50;13.20;;;8.70;89.00;;;6.09;90.14;98878.66;4989274;28;20065;-82
2022/03/31 03:28:49;;;;;;;23.20;12.73;;;8.70;88.90;;;6.07;90.58;98883.44;4979865;28;20121;-82
2022/03/31 03:31:16;;;;;;;24.13;13.07;;;8.70;89.00;;;6.10;90.58;98871.41;4990442;28;20050;-82
2022/03/31 03:33:44;;;;;;;22.35;13.52;;;8.70;89.10;;;6.04;90.01;98878.44;4990916;28;20121;-82
2022/03/31 03:36:12;;;;;;;22.00;13.32;;;8.80;89.10;;;6.04;91.02;98875.75;4990498;28;20046;-82
2022/03/31 03:38:40;;;;;;;25.33;14.05;;;8.70;89.40;;;5.96;90.83;98883.97;4990209;28;20038;-82
2022/03/31 03:41:10;;;;;;;25.05;13.23;;;8.70;89.20;;;5.98;91.01;98876.53;4989433;28;20121;-82
2022/03/31 03:43:41;;;;;;;24.40;13.38;;;8.70;89.30;;;5.97;92.53;98881.06;4990675;28;20053;-82
2022/03/31 03:46:08;;;;;;;25.10;14.27;;;8.70;89.60;;;5.91;93.05;98881.00;4974915;28;20051;-82
2022/03/31 03:48:36;;;;;;;23.48;13.63;;;8.70;89.80;;;5.86;93.18;98881.56;4971044;28;20460;-82
2022/03/31 03:51:03;;;;;;;23.20;13.15;;;8.70;90.00;;;5.82;94.10;98875.72;4984788;28;20120;-82
2022/03/31 03:53:31;;;;;;;22.60;13.98;;;8.70;90.10;;;5.85;94.50;98872.66;4990485;28;20042;-82
2022/03/31 03:55:58;;;;;;;26.05;14.18;;;8.70;90.30;;;5.91;94.26;98881.00;4988986;28;20097;-82
2022/03/31 03:58:26;;;;;;;24.15;14.23;;;8.70;90.70;;;5.88;94.96;98874.09;4989208;28;20117;-82
2022/03/31 04:00:54;;;;;;;26.65;14.77;;;8.60;90.80;;;5.84;95.84;98881.75;4976252;28;20495;-82
2022/03/31 04:03:21;;;;;;;27.20;14.70;;;8.70;90.80;;;5.85;95.75;98878.03;4971112;28;20141;-82
2022/03/31 04:05:50;;;;;;;25.77;14.98;;;8.70;91.00;;;5.83;96.52;98872.00;4971447;28;20070;-82
2022/03/31 04:08:17;;;;;;;26.35;14.82;;;8.60;91.20;;;5.83;96.83;98874.69;4971052;28;20042;-79
2022/03/31 04:10:45;;;;;;;24.95;14.52;;;8.70;91.70;;;5.81;97.82;98874.06;4995765;28;20422;-77
2022/03/31 04:13:12;;;;;;;25.90;15.10;;;8.60;91.80;;;5.93;97.35;98868.97;4989612;28;20578;-82
2022/03/31 04:15:41;;;;;;;30.35;15.88;;;8.70;92.30;;;5.88;98.05;98874.97;4988397;28;20057;-84
2022/03/31 04:18:09;;;;;;;25.85;16.00;;;8.60;92.20;;;5.85;98.82;98864.53;4983952;28;20656;-84
2022/03/31 04:20:37;;;;;;;27.63;15.90;;;8.70;92.80;;;5.94;99.00;98869.78;4969773;28;20046;-84
2022/03/31 04:23:05;;;;;;;25.45;15.40;;;8.60;92.80;;;5.94;98.87;98864.41;4975559;28;20046;-85
2022/03/31 04:25:33;;;;;;;26.48;15.63;;;8.60;93.10;;;5.98;98.73;98868.44;4990929;28;20050;-84
2022/03/31 04:28:00;;;;;;;25.83;14.63;;;8.70;93.30;;;6.01;98.79;98860.75;4985429;28;20263;-83
2022/03/31 04:30:28;;;;;;;27.27;15.57;;;8.70;93.70;;;6.04;98.42;98867.63;4969898;28;20134;-83
2022/03/31 04:32:56;;;;;;;27.30;14.73;;;8.60;93.50;;;5.97;99.81;98866.75;4972968;28;20043;-83
2022/03/31 04:35:24;;;;;;;24.65;14.70;;;8.70;93.90;;;5.87;100.00;98865.19;4989916;28;20047;-82
2022/03/31 04:37:51;;;;;;;25.55;15.13;;;8.60;93.80;;;5.85;100.00;98864.53;4987977;28;20661;-82
2022/03/31 04:40:18;;;;;;;22.88;14.48;;;8.60;93.80;;;5.87;100.00;98862.47;4999547;23;20054;-84
2022/03/31 04:42:46;;;;;;;25.73;14.57;;;8.70;94.30;;;5.91;100.00;98864.81;4983312;28;20079;-83
2022/03/31 04:45:13;;;;;;;28.70;14.32;;;8.70;94.60;;;5.86;100.00;98865.38;4973535;28;20050;-84
2022/03/31 04:47:40;;;;;;;24.88;14.60;;;8.60;94.40;;;5.85;100.00;98861.84;4987830;28;20531;-83
2022/03/31 04:50:10;;;;;;;27.45;14.52;;;8.60;94.70;;;5.78;100.00;98860.94;4970960;28;20047;-84
2022/03/31 04:52:37;;;;;;;26.77;14.57;;;8.60;95.10;;;5.84;100.00;98870.97;4968478;28;20157;-83
2022/03/31 04:55:06;;;;;;;25.13;14.18;;;8.60;94.80;;;5.87;100.00;98864.34;4968432;28;20047;-84
2022/03/31 04:57:33;;;;;;;26.30;14.40;;;8.60;94.90;;;5.88;100.00;98866.00;4968016;28;20038;-84
2022/03/31 05:00:00;;;;;;;27.50;13.73;;;8.60;94.90;;;5.89;100.00;98862.28;4967856;28;20039;-84
2022/03/31 05:02:28;;;;;;;27.80;14.50;;;8.60;94.80;;;5.83;100.00;98863.91;4968748;28;20058;-83
2022/03/31 05:04:55;;;;;;;31.98;15.23;;;8.60;94.90;;;5.83;100.00;98858.50;4969155;28;20043;-88
2022/03/31 05:07:24;;;;;;;27.65;14.52;;;8.70;95.20;;;5.82;100.00;98858.69;4970781;28;20205;-87
2022/03/31 05:09:51;;;;;;;28.92;14.43;;;8.60;95.00;;;5.82;100.00;98861.41;4970884;28;20038;-87
2022/03/31 05:12:18;;;;;;;24.42;12.88;;;8.60;94.80;;;5.81;100.00;98860.56;4972961;28;20046;-88
2022/03/31 05:14:45;;;;;;;24.98;12.57;;;8.60;95.10;;;5.84;100.00;98862.03;4974019;28;20054;-90
2022/03/31 05:17:13;;;;;;;26.98;14.40;;;8.70;95.20;;;5.82;100.00;98851.44;4973486;28;20101;-89
2022/03/31 05:19:40;;;;;;;23.85;13.50;;;8.60;95.00;;;5.87;100.00;98858.97;4971164;28;20042;-88
2022/03/31 05:22:07;;;;;;;27.70;13.82;;;8.60;95.20;;;5.86;100.00;98858.13;4972445;28;20176;-87
2022/03/31 05:24:36;;;;;;;25.05;13.52;;;8.60;95.20;;;5.78;100.00;98855.53;4970683;28;20050;-87
2022/03/31 05:27:04;;;;;;;25.27;14.18;;;8.60;95.40;;;5.79;100.00;98854.53;4965813;28;20177;-93
2022/03/31 05:29:31;;;;;;;26.15;13.65;;;8.60;95.70;;;5.76;100.00;98852.22;4971698;28;20078;-92
2022/03/31 05:31:59;;;;;;;26.27;13.32;;;8.60;95.80;;;5.81;100.00;98857.03;4975073;28;20078;-91
2022/03/31 05:34:26;;;;;;;28.88;14.10;;;8.60;95.80;;;5.75;100.00;98855.97;4973214;28;20161;-91
2022/03/31 05:36:54;;;;;;;24.30;13.90;;;8.60;95.80;;;5.80;100.00;98858.88;4974842;28;20098;-90
2022/03/31 05:39:21;;;;;;;24.77;12.98;;;8.60;95.70;;;5.81;100.00;98859.75;4974067;28;20511;-93
2022/03/31 05:41:50;;;;;;;26.00;13.40;;;8.60;96.00;;;5.88;100.00;98855.22;4973762;28;20042;-91
2022/03/31 05:44:17;;;;;;;24.63;13.38;;;8.50;96.00;;;5.86;100.00;98847.31;4974329;28;20137;-92
2022/03/31 05:46:44;;;;;;;31.15;14.05;;;8.60;96.40;;;5.93;100.00;98855.47;4973475;28;20566;-92
2022/03/31 05:49:12;;;;;;;27.85;13.43;;;8.50;96.20;;;5.90;100.00;98860.41;4975229;28;20051;-92
2022/03/31 05:51:39;;;;;;;27.90;13.82;;;8.50;96.30;;;5.93;100.00;98860.03;4974031;28;20075;-92
2022/03/31 05:54:06;;;;;;;26.23;14.43;;;8.50;96.40;;;5.82;100.00;98851.44;4975150;28;20066;-92
2022/03/31 05:56:34;;;;;;;25.80;13.50;;;8.50;96.50;;;5.78;100.00;98855.53;4973722;28;20051;-91
2022/03/31 05:59:04;;;;;;;25.95;13.55;;;8.50;96.70;;;5.75;100.00;98860.50;4972481;28;20035;-93
2022/03/31 06:01:32;;;;;;;28.83;13.60;;;8.50;96.70;;;5.78;100.00;98852.84;4972075;28;20042;-92
2022/03/31 06:03:59;;;;;;;31.55;14.27;;;8.50;97.00;;;5.78;100.00;98855.53;4973511;28;20046;-90
2022/03/31 06:06:26;;;;;;;29.02;14.20;;;8.50;97.00;;;5.86;100.00;98855.44;4989168;28;20053;-91
2022/03/31 06:08:54;;;;;;;29.77;14.82;;;8.50;96.90;;;5.87;100.00;98865.19;4974008;28;20055;-92
2022/03/31 06:11:21;;;;;;;32.17;14.43;;;8.50;97.10;;;5.93;100.00;98862.75;4973251;28;20071;-92
2022/03/31 06:13:48;;;;;;;26.67;14.95;;;8.50;97.00;;;5.85;100.00;98861.84;4972783;28;20055;-90
2022/03/31 06:16:17;;;;;;;24.92;13.40;;;8.50;97.00;;;5.88;100.00;98858.75;4972627;28;20125;-84
2022/03/31 06:18:45;;;;;;;25.67;13.82;;;8.50;97.60;;;5.85;100.00;98856.44;4985917;28;20566;-88
2022/03/31 06:21:12;;;;;;;27.02;14.57;;;8.60;97.60;;;5.83;100.00;98863.09;4970166;28;20070;-87
2022/03/31 06:23:40;;;;;;;28.85;15.23;;;8.50;97.50;;;5.84;100.00;98853.94;4971096;28;20046;-90
2022/03/31 06:26:09;;;;;;;25.65;14.57;;;8.50;97.30;;;5.81;100.00;98855.16;4974081;28;20085;-90
2022/03/31 06:34:02;;;;;;;29.48;15.80;;;8.60;97.70;;;5.83;100.00;98858.50;5327298;23;20428;-92
2022/03/31 06:36:30;;;;;;;31.45;14.77;;;8.60;97.50;;;5.91;100.00;98854.84;4977128;28;20105;-93
2022/03/31 06:41:55;;;;;;;29.02;14.68;;;8.60;97.20;;;5.91;100.00;98854.00;4993021;28;20096;-90
2022/03/31 06:44:23;;;;;;;28.73;15.15;;;8.60;97.30;;;5.88;100.00;98860.59;4990645;28;20046;-88
2022/03/31 06:46:51;;;;;;;28.15;15.60;;;8.60;97.30;;;5.88;100.00;98863.31;4977211;28;20055;-89
2022/03/31 06:49:21;;;;;;;28.33;15.98;;;8.60;97.50;;;5.97;100.00;98864.03;4999412;28;20093;-88
2022/03/31 06:51:48;;;;;;;32.50;15.43;;;8.60;97.60;;;5.94;100.00;98862.56;4972241;28;20039;-89
2022/03/31 06:54:15;;;;;;;30.13;15.52;;;8.60;97.50;;;6.02;100.00;98862.44;4971900;28;20483;-88
2022/03/31 06:56:43;;;;;;;32.35;16.05;;;8.60;97.70;;;6.03;100.00;98855.16;4985465;28;20046;-89
2022/03/31 06:59:10;;;;;;;27.48;15.45;;;8.60;97.80;;;5.99;100.00;98864.69;4989382;28;20050;-89
2022/03/31 07:01:37;;;;;;;30.63;15.77;;;8.60;97.70;;;6.09;100.00;98862.47;4979994;28;20089;-88
2022/03/31 07:04:06;;;;;;;26.38;15.70;;;8.60;97.90;;;6.09;100.00;98869.75;4988917;28;20510;-88
2022/03/31 07:06:35;;;;;;;30.80;15.98;;;8.60;97.70;;;6.11;100.00;98860.44;4987633;28;20039;-89
2022/03/31 07:09:03;;;;;;;24.77;15.23;;;8.60;97.30;;;6.10;100.00;98866.84;4984604;28;20050;-88
2022/03/31 07:11:30;;;;;;;28.60;15.63;;;8.60;97.70;;;6.02;100.00;98861.59;4984833;28;20042;-88
2022/03/31 07:14:01;;;;;;;30.50;16.50;;;8.60;98.00;;;6.02;100.00;98861.59;4991199;28;20043;-89
2022/03/31 07:16:30;;;;;;;31.65;15.82;;;8.60;98.00;;;6.00;100.00;98866.38;4995209;28;20068;-87
2022/03/31 07:18:58;;;;;;;32.72;16.58;;;8.70;98.40;;;6.05;100.00;98863.88;5012216;28;20049;-88
2022/03/31 07:21:26;;;;;;;33.58;17.30;;;8.60;97.90;;;6.08;100.00;98860.81;4986388;28;20046;-88
2022/03/31 07:23:55;;;;;;;29.85;15.73;;;8.70;97.90;;;6.20;100.00;98858.41;4984934;28;20121;-88
2022/03/31 07:26:23;;;;;;;32.22;17.02;;;8.70;97.80;;;6.19;100.00;98860.28;4989300;28;20530;-88
2022/03/31 07:28:50;;;;;;;30.30;17.00;;;8.70;97.90;;;6.25;100.00;98862.16;4996020;28;20046;-88
2022/03/31 07:31:18;;;;;;;30.20;17.13;;;8.70;97.80;;;6.25;100.00;98861.34;4986048;28;20053;-88
2022/03/31 07:33:45;;;;;;;30.52;17.35;;;8.70;98.10;;;6.26;100.00;98858.47;4983838;28;20109;-88
2022/03/31 07:36:13;;;;;;;30.58;17.00;;;8.70;97.90;;;6.29;100.00;98861.78;4990728;28;20060;-88
2022/03/31 07:38:40;;;;;;;33.75;18.38;;;8.80;98.50;;;6.23;100.00;98864.25;4995700;28;20049;-88
2022/03/31 07:41:09;;;;;;;30.75;16.42;;;8.80;98.30;;;6.23;100.00;98858.84;4988503;28;20055;-87
2022/03/31 07:43:37;;;;;;;28.73;17.70;;;8.80;98.00;;;6.27;100.00;98856.59;4980824;28;20065;-88
2022/03/31 07:46:04;;;;;;;33.50;17.88;;;8.80;97.80;;;6.28;100.00;98849.31;4988806;28;20081;-89
2022/03/31 07:48:31;;;;;;;30.77;17.88;;;8.80;98.20;;;6.32;100.00;98845.16;4986490;28;20058;-88
2022/03/31 07:50:59;;;;;;;33.10;17.15;;;8.80;98.40;;;6.31;100.00;98848.91;4980727;28;20097;-88
2022/03/31 07:53:26;;;;;;;29.50;17.08;;;8.80;98.70;;;6.30;100.00;98847.22;4983822;28;20050;-88
2022/03/31 07:55:54;;;;;;;33.10;18.50;;;8.80;98.60;;;6.34;100.00;98843.09;4990113;28;20129;-88
2022/03/31 07:58:23;;;;;;;34.35;17.73;;;8.90;98.60;;;6.43;100.00;98840.03;4981017;28;20038;-88
2022/03/31 08:00:53;;;;;;;28.05;16.38;;;8.90;98.20;;;6.41;100.00;98843.97;4970005;28;20078;-88
2022/03/31 08:03:23;;;;;;;30.60;17.77;;;8.90;98.50;;;6.49;100.00;98841.09;4989527;28;20419;-88
2022/03/31 08:05:51;;;;;;;32.13;16.85;;;8.90;98.40;;;6.43;100.00;98841.91;4996406;28;20403;-88
2022/03/31 08:08:19;;;;;;;31.35;17.17;;;8.90;98.50;;;6.46;100.00;98836.13;4982856;28;20113;-87
2022/03/31 08:10:46;;;;;;;28.58;17.30;;;8.90;99.00;;;6.52;100.00;98840.72;4979697;28;20043;-87
2022/03/31 08:13:13;;;;;;;28.30;17.92;;;9.00;98.80;;;6.50;100.00;98842.78;4986993;28;20455;-88
2022/03/31 08:15:42;;;;;;;29.33;16.35;;;8.90;98.60;;;6.55;100.00;98842.19;4987294;28;20062;-86
2022/03/31 08:18:10;;;;;;;32.15;18.20;;;8.90;98.50;;;6.50;100.00;98848.19;4978223;28;20077;-91
2022/03/31 08:20:37;;;;;;;32.50;18.10;;;9.00;98.80;;;6.50;100.00;98836.56;4986736;28;20045;-90
2022/03/31 08:23:05;;;;;;;29.70;17.50;;;9.00;99.00;;;6.48;100.00;98842.16;4985558;28;20054;-90
2022/03/31 08:25:33;;;;;;;32.17;18.73;;;9.00;98.60;;;6.48;100.00;98844.84;4986680;28;20138;-90
2022/03/31 08:28:00;;;;;;;30.95;18.30;;;9.00;98.10;;;6.49;100.00;98841.09;5001846;28;20050;-89
2022/03/31 08:30:28;;;;;;;30.70;17.95;;;9.00;98.40;;;6.42;100.00;98845.66;5008169;28;20046;-90
2022/03/31 08:32:57;;;;;;;31.73;17.10;;;9.00;98.80;;;6.43;100.00;98850.03;4984997;28;20042;-89
2022/03/31 08:35:27;;;;;;;28.70;16.75;;;9.00;98.80;;;6.52;100.00;98851.53;4973703;28;20077;-89
2022/03/31 08:37:54;;;;;;;31.27;17.33;;;9.00;98.50;;;6.47;100.00;98848.56;4968251;28;20139;-89
2022/03/31 08:40:22;;;;;;;29.38;16.88;;;9.00;98.30;;;6.40;100.00;98853.13;4968171;28;20065;-88
2022/03/31 08:42:49;;;;;;;30.30;17.55;;;9.00;98.60;;;6.49;100.00;98851.91;4971664;28;20042;-90
2022/03/31 08:45:20;;;;;;;32.75;17.70;;;9.00;99.10;;;6.55;100.00;98850.28;4983236;28;20042;-90
2022/03/31 08:47:51;;;;;;;30.97;16.60;;;9.00;99.00;;;6.59;100.00;98847.00;4982155;28;20057;-89
2022/03/31 08:50:22;;;;;;;30.23;18.23;;;9.00;99.20;;;6.62;100.00;98857.38;4983134;28;20042;-90
2022/03/31 08:52:50;;;;;;;29.80;17.85;;;9.10;99.50;;;6.63;100.00;98853.66;4981506;28;20618;-89
2022/03/31 08:55:19;;;;;;;29.55;18.02;;;9.10;99.50;;;6.69;100.00;98846.63;4981643;28;20717;-89
2022/03/31 08:57:54;;;;;;;30.25;17.13;;;9.10;99.00;;;6.73;100.00;98844.38;4984441;28;20138;-89
2022/03/31 09:00:23;;;;;;;29.00;17.05;;;9.10;99.40;;;6.73;100.00;98847.88;4994553;28;20046;-90
2022/03/31 09:02:58;;;;;;;27.15;16.80;;;9.10;99.00;;;6.80;100.00;98847.94;5005357;28;20050;-89
2022/03/31 09:05:28;;;;;;;30.10;17.73;;;9.10;99.20;;;6.93;100.00;98853.41;5006814;28;20050;-89
2022/03/31 09:08:00;;;;;;;27.65;17.30;;;9.20;99.30;;;6.92;100.00;98850.88;4989591;28;20097;-88
2022/03/31 09:10:33;;;;;;;28.15;16.08;;;9.20;99.60;;;6.99;100.00;98849.88;4988023;28;20267;-90
2022/03/31 09:13:03;;;;;;;30.10;15.85;;;9.30;99.40;;;7.02;100.00;98857.56;5004421;28;20064;-88
2022/03/31 09:15:32;;;;;;;32.10;16.58;;;9.30;99.40;;;7.04;100.00;98850.13;4980711;28;20050;-90
2022/03/31 09:18:00;;;;;;;27.50;15.88;;;9.30;98.50;;;6.97;100.00;98854.66;4988423;28;20142;-89
2022/03/31 09:20:39;;;;;;;27.20;15.30;;;9.30;98.60;;;7.02;100.00;98852.16;5008010;28;20038;-89
2022/03/31 09:23:08;;;;;;;26.23;15.35;;;9.30;98.10;;;7.08;100.00;98849.69;4986388;28;20046;-90
2022/03/31 09:25:35;;;;;;;23.92;14.70;;;9.30;98.60;;;7.07;100.00;98853.44;4987194;28;20494;-90
2022/03/31 09:28:14;;;;;;;24.83;14.65;;;9.40;99.00;;;7.08;100.00;98855.94;5006805;28;20074;-89
2022/03/31 09:30:51;;;;;;;27.25;14.35;;;9.40;98.60;;;7.01;100.00;98853.22;4987501;28;20137;-89
2022/03/31 09:33:32;;;;;;;24.60;14.15;;;9.40;98.20;;;6.93;100.00;98853.41;4984771;28;20046;-88
2022/03/31 09:36:08;;;;;;;27.00;15.13;;;9.40;97.60;;;6.92;100.00;98850.88;5001587;28;20578;-90
2022/03/31 09:38:37;;;;;;;25.60;15.40;;;9.40;98.30;;;6.96;100.00;98852.97;5009903;28;20046;-89
2022/03/31 09:41:18;;;;;;;25.88;14.73;;;9.50;98.50;;;7.03;100.00;98855.72;5008785;28;20101;-90
2022/03/31 09:43:47;;;;;;;25.10;13.48;;;9.40;98.00;;;6.99;100.00;98857.16;4988228;28;20046;-90
2022/03/31 09:46:23;;;;;;;23.30;13.95;;;9.40;98.20;;;6.91;100.00;98855.47;4984051;28;20050;-88
2022/03/31 09:48:51;;;;;;;23.15;13.70;;;9.40;97.20;;;6.92;100.00;98865.25;4989323;28;20069;-89
2022/03/31 09:51:22;;;;;;;23.15;13.82;;;9.40;98.00;;;6.93;100.00;98857.94;4971394;28;20046;-89
2022/03/31 09:53:51;;;;;;;23.35;14.25;;;9.30;97.70;;;6.97;100.00;98854.66;4973430;28;20121;-84
2022/03/31 09:56:20;;;;;;;24.27;13.90;;;9.40;98.10;;;6.95;100.00;98862.13;4986690;28;20093;-85
2022/03/31 09:58:49;;;;;;;28.13;15.18;;;9.40;98.30;;;6.97;100.00;98857.38;4989695;28;20038;-88
2022/03/31 10:01:18;;;;;;;25.63;14.48;;;9.40;98.70;;;7.08;100.00;98855.09;4989964;28;20081;-88
2022/03/31 10:03:46;;;;;;;26.58;15.10;;;9.40;98.20;;;7.01;100.00;98855.91;4992955;28;20065;-90
2022/03/31 10:06:14;;;;;;;24.67;13.95;;;9.40;97.30;;;7.08;100.00;98857.81;4991295;28;20109;-90
2022/03/31 10:08:44;;;;;;;28.55;15.18;;;9.40;97.20;;;7.05;100.00;98856.34;4991924;28;20130;-90
2022/03/31 10:11:13;;;;;;;23.55;14.50;;;9.40;97.40;;;7.07;100.00;98853.44;4990150;28;20145;-90
2022/03/31 10:13:47;;;;;;;27.50;16.00;;;9.40;97.50;;;7.04;100.00;98857.38;4971994;28;20051;-90
2022/03/31 10:16:20;;;;;;;26.38;14.63;;;9.70;98.10;;;7.10;100.00;98853.03;4990378;28;20149;-90
2022/03/31 10:18:48;;;;;;;26.42;15.18;;;9.40;97.00;;;7.00;100.00;98853.41;4993108;28;20128;-90
2022/03/31 10:21:27;;;;;;;26.17;15.35;;;9.40;97.60;;;6.99;100.00;98851.75;4990918;28;20118;-90
2022/03/31 10:26:41;;;;;;;25.10;15.82;;;9.40;97.80;;;6.92;100.00;98849.00;4971948;28;20181;-90
2022/03/31 10:29:13;;;;;;;25.60;15.75;;;9.40;97.20;;;6.87;100.00;98847.94;4993677;28;20050;-90
2022/03/31 10:31:43;;;;;;;26.85;15.77;;;9.40;97.80;;;6.95;100.00;98845.91;4990381;28;20038;-90
2022/03/31 10:34:14;;;;;;;25.88;16.27;;;9.40;98.00;;;7.00;100.00;98851.53;4990300;28;20074;-89